Time;durP1;ratioP1;P1;durP2;ratioP2;P2;SDS_P1;SDS_P2;PMS_P1;PMS_P2;Temp;Humidity;BMP_temperature;BMP_pressure;BME280_temperature;BME280_humidity;BME280_pressure;Samples;Min_cycle;Max_cycle;Signal;HPM_P1;HPM_P2
2024/01/30 00:02:06;;;;;;;;;;;12.20;99.90;;;;;;4959788;28;19938;-93
2024/01/30 00:04:32;;;;;;;;;;;12.20;99.90;;;;;;4964060;28;19969;-92
2024/01/30 00:06:57;;;;;;;;;;;12.20;99.90;;;;;;4967856;28;20462;-90
2024/01/30 00:09:23;;;;;;;;;;;12.10;99.90;;;;;;4969259;28;20052;-93
2024/01/30 00:11:48;;;;;;;;;;;12.20;99.90;;;;;;4963772;28;20430;-92
2024/01/30 00:14:14;;;;;;;;;;;12.10;99.90;;;;;;4956913;28;20027;-93
2024/01/30 00:16:39;;;;;;;;;;;12.00;99.90;;;;;;4953316;28;21117;-92
2024/01/30 00:19:05;;;;;;;;;;;11.90;99.90;;;;;;4952370;28;19985;-93
2024/01/30 00:21:31;;;;;;;;;;;11.80;99.90;;;;;;4953084;28;19956;-91
2024/01/30 00:23:56;;;;;;;;;;;11.70;99.90;;;;;;4960734;28;20020;-92
2024/01/30 00:26:22;;;;;;;;;;;11.70;99.90;;;;;;4958901;28;20003;-92
2024/01/30 00:28:47;;;;;;;;;;;11.70;99.90;;;;;;4956687;28;19937;-94
2024/01/30 00:31:13;;;;;;;;;;;11.60;99.90;;;;;;4958580;28;19955;-92
2024/01/30 00:33:39;;;;;;;;;;;11.60;99.90;;;;;;4960026;28;19953;-92
2024/01/30 00:36:05;;;;;;;;;;;11.60;99.90;;;;;;4958838;28;19961;-92
2024/01/30 00:38:30;;;;;;;;;;;11.60;99.90;;;;;;4962701;28;19965;-92
2024/01/30 00:40:56;;;;;;;;;;;11.60;99.90;;;;;;4964804;28;19972;-92
2024/01/30 00:43:22;;;;;;;;;;;11.60;99.90;;;;;;4957883;28;19947;-91
2024/01/30 00:45:47;;;;;;;;;;;11.60;99.90;;;;;;4957981;28;19947;-92
2024/01/30 00:48:13;;;;;;;;;;;11.60;99.90;;;;;;4960255;28;20047;-92
2024/01/30 00:50:38;;;;;;;;;;;11.60;99.90;;;;;;4963022;28;19985;-92
2024/01/30 00:53:04;;;;;;;;;;;11.50;99.90;;;;;;4969910;28;20150;-93
2024/01/30 00:55:29;;;;;;;;;;;11.50;99.90;;;;;;4962238;28;20013;-94
2024/01/30 00:57:55;;;;;;;;;;;11.50;99.90;;;;;;4968715;28;20020;-93
2024/01/30 01:00:20;;;;;;;;;;;11.40;99.90;;;;;;4961700;28;19995;-91
2024/01/30 01:02:46;;;;;;;;;;;11.40;99.90;;;;;;4956501;28;20552;-91
2024/01/30 01:05:12;;;;;;;;;;;11.30;99.90;;;;;;4949921;28;20411;-94
2024/01/30 01:07:37;;;;;;;;;;;11.30;99.90;;;;;;4964117;28;19977;-92
2024/01/30 01:10:03;;;;;;;;;;;11.20;99.90;;;;;;4962693;28;20021;-93
2024/01/30 01:12:29;;;;;;;;;;;11.20;99.90;;;;;;4970375;28;20205;-93
2024/01/30 01:14:55;;;;;;;;;;;11.00;99.90;;;;;;4964882;28;20398;-93
2024/01/30 01:17:20;;;;;;;;;;;11.00;99.90;;;;;;4954008;28;19984;-92
2024/01/30 01:19:46;;;;;;;;;;;11.00;99.90;;;;;;4959377;28;19951;-92
2024/01/30 01:22:11;;;;;;;;;;;10.90;99.90;;;;;;4956079;28;20626;-93
2024/01/30 01:24:37;;;;;;;;;;;10.90;99.90;;;;;;4955703;28;19966;-91
2024/01/30 01:27:03;;;;;;;;;;;10.90;99.90;;;;;;4959441;28;19957;-92
2024/01/30 01:29:29;;;;;;;;;;;10.90;99.90;;;;;;4964461;28;19946;-91
2024/01/30 01:31:55;;;;;;;;;;;10.80;99.90;;;;;;4958317;28;20072;-93
2024/01/30 01:34:21;;;;;;;;;;;10.80;99.90;;;;;;4959429;28;19948;-92
2024/01/30 01:36:47;;;;;;;;;;;10.70;99.90;;;;;;4959874;28;19948;-92
2024/01/30 01:39:12;;;;;;;;;;;10.60;99.90;;;;;;4951133;28;20264;-92
2024/01/30 01:41:38;;;;;;;;;;;10.40;99.90;;;;;;4958820;28;20010;-92
2024/01/30 01:44:03;;;;;;;;;;;10.30;99.90;;;;;;4964403;28;20061;-91
2024/01/30 01:46:30;;;;;;;;;;;10.20;99.90;;;;;;4966452;28;20325;-92
2024/01/30 01:48:56;;;;;;;;;;;10.20;99.90;;;;;;4957019;28;19963;-91
2024/01/30 01:51:22;;;;;;;;;;;10.10;99.90;;;;;;4954711;28;19961;-94
2024/01/30 01:53:48;;;;;;;;;;;10.10;99.90;;;;;;4956471;28;20412;-92
2024/01/30 01:56:14;;;;;;;;;;;10.10;99.90;;;;;;4957416;28;19955;-91
2024/01/30 01:58:40;;;;;;;;;;;10.10;99.90;;;;;;4961555;28;19957;-94
2024/01/30 02:01:05;;;;;;;;;;;10.10;99.90;;;;;;4963405;28;19963;-91
2024/01/30 02:03:31;;;;;;;;;;;10.00;99.90;;;;;;4954355;28;19956;-93
2024/01/30 02:05:57;;;;;;;;;;;10.00;99.90;;;;;;4957847;28;19963;-91
2024/01/30 02:08:24;;;;;;;;;;;9.90;99.90;;;;;;4963189;28;19949;-91
2024/01/30 02:10:50;;;;;;;;;;;9.90;99.90;;;;;;4962739;28;19943;-91
2024/01/30 02:13:15;;;;;;;;;;;9.90;99.90;;;;;;4951131;28;20084;-92
2024/01/30 02:15:41;;;;;;;;;;;9.90;99.90;;;;;;4954920;28;19992;-92
2024/01/30 02:18:07;;;;;;;;;;;9.80;99.90;;;;;;4958174;28;19999;-92
2024/01/30 02:20:34;;;;;;;;;;;9.80;99.90;;;;;;4954816;28;20357;-91
2024/01/30 02:23:01;;;;;;;;;;;9.80;99.90;;;;;;4961383;28;19937;-92
2024/01/30 02:25:35;;;;;;;;;;;9.80;99.90;;;;;;4960060;28;20317;-92
2024/01/30 02:28:01;;;;;;;;;;;9.80;99.90;;;;;;4953961;28;20040;-92
2024/01/30 02:30:26;;;;;;;;;;;9.70;99.90;;;;;;4959378;28;21185;-94
2024/01/30 02:32:52;;;;;;;;;;;9.80;99.90;;;;;;4961321;28;20029;-93
2024/01/30 02:35:17;;;;;;;;;;;9.70;99.90;;;;;;4960466;28;20028;-91
2024/01/30 02:37:43;;;;;;;;;;;9.70;99.90;;;;;;4962593;28;20455;-91
2024/01/30 02:40:09;;;;;;;;;;;9.70;99.90;;;;;;4958053;28;20029;-91
2024/01/30 02:42:35;;;;;;;;;;;9.70;99.90;;;;;;4963737;28;20179;-92
2024/01/30 02:45:00;;;;;;;;;;;9.70;99.90;;;;;;4961861;28;19999;-93
2024/01/30 02:47:26;;;;;;;;;;;9.70;99.90;;;;;;4965777;28;19949;-92
2024/01/30 02:49:51;;;;;;;;;;;9.70;99.90;;;;;;4956295;28;20077;-91
2024/01/30 02:52:17;;;;;;;;;;;9.70;99.90;;;;;;4955198;28;19948;-91
2024/01/30 02:54:43;;;;;;;;;;;9.70;99.90;;;;;;4962816;28;19962;-93
2024/01/30 02:57:08;;;;;;;;;;;9.60;99.90;;;;;;4959832;28;19949;-92
2024/01/30 02:59:35;;;;;;;;;;;9.50;99.90;;;;;;4959932;28;20116;-92
2024/01/30 03:02:01;;;;;;;;;;;9.50;99.90;;;;;;4953607;28;19958;-93
2024/01/30 03:04:27;;;;;;;;;;;9.40;99.90;;;;;;4956247;28;20321;-91
2024/01/30 03:06:52;;;;;;;;;;;9.40;99.90;;;;;;4963565;28;19962;-93
2024/01/30 03:09:18;;;;;;;;;;;9.40;99.90;;;;;;4965158;28;20421;-93
2024/01/30 03:11:44;;;;;;;;;;;9.40;99.90;;;;;;4956604;28;19961;-90
2024/01/30 03:14:10;;;;;;;;;;;9.30;99.90;;;;;;4958775;28;19969;-92
2024/01/30 03:16:37;;;;;;;;;;;9.20;99.90;;;;;;4953403;28;20036;-93
2024/01/30 03:19:03;;;;;;;;;;;9.20;99.90;;;;;;4955825;28;20403;-93
2024/01/30 03:24:32;;;;;;;;;;;9.20;99.90;;;;;;4965742;28;20040;-93
2024/01/30 03:26:57;;;;;;;;;;;9.20;99.90;;;;;;4968958;28;19979;-92
2024/01/30 03:29:23;;;;;;;;;;;9.10;99.90;;;;;;4966870;28;20173;-94
2024/01/30 03:31:48;;;;;;;;;;;9.10;99.90;;;;;;4968567;28;19959;-93
2024/01/30 03:34:14;;;;;;;;;;;9.10;99.90;;;;;;4968611;28;20388;-93
2024/01/30 03:36:40;;;;;;;;;;;9.10;99.90;;;;;;4964344;28;19962;-94
2024/01/30 03:39:15;;;;;;;;;;;9.10;99.90;;;;;;4970212;28;19972;-94
2024/01/30 03:41:44;;;;;;;;;;;9.10;99.90;;;;;;4965595;28;20215;-94
2024/01/30 03:44:10;;;;;;;;;;;9.10;99.90;;;;;;4966416;28;19961;-93
2024/01/30 03:46:49;;;;;;;;;;;9.00;99.90;;;;;;4964418;28;19985;-93
2024/01/30 03:49:47;;;;;;;;;;;9.00;99.90;;;;;;4964046;28;20048;-94
2024/01/30 03:52:38;;;;;;;;;;;9.00;99.90;;;;;;4969390;28;19950;-94
2024/01/30 03:55:10;;;;;;;;;;;9.00;99.90;;;;;;4979608;28;19953;-95
2024/01/30 03:58:13;;;;;;;;;;;;;;;;;;;;;
2024/01/30 04:58:52;;;;;;;;;;;9.00;99.90;;;;;;4994792;23;20327;-86
2024/01/30 05:01:17;;;;;;;;;;;9.10;99.90;;;;;;4959033;28;20533;-85
2024/01/30 05:03:43;;;;;;;;;;;9.00;99.90;;;;;;4960711;28;19957;-86
2024/01/30 05:06:08;;;;;;;;;;;9.00;99.90;;;;;;4960002;28;19959;-85
2024/01/30 05:08:36;;;;;;;;;;;9.00;99.90;;;;;;4978587;28;19945;-85
2024/01/30 05:11:03;;;;;;;;;;;9.00;99.90;;;;;;4978782;28;20970;-86
2024/01/30 05:13:30;;;;;;;;;;;9.00;99.90;;;;;;4973545;28;19954;-86
2024/01/30 05:15:56;;;;;;;;;;;9.00;99.90;;;;;;4976269;28;20478;-86
2024/01/30 05:18:21;;;;;;;;;;;9.00;99.90;;;;;;4976446;28;19949;-86
2024/01/30 05:20:47;;;;;;;;;;;9.00;99.90;;;;;;4981237;28;19950;-85
2024/01/30 05:23:12;;;;;;;;;;;9.00;99.90;;;;;;4985855;28;19948;-86
2024/01/30 05:25:38;;;;;;;;;;;9.00;99.90;;;;;;4981051;28;19956;-86
2024/01/30 05:28:03;;;;;;;;;;;9.00;99.90;;;;;;4984047;28;20031;-86
2024/01/30 05:30:29;;;;;;;;;;;9.00;99.90;;;;;;4982349;28;19945;-86
2024/01/30 05:32:54;;;;;;;;;;;9.00;99.90;;;;;;4976370;28;19983;-87
2024/01/30 05:35:21;;;;;;;;;;;9.00;99.90;;;;;;4977416;28;19981;-86
2024/01/30 05:37:47;;;;;;;;;;;9.00;99.90;;;;;;4973686;28;19956;-87
2024/01/30 05:40:13;;;;;;;;;;;9.00;99.90;;;;;;4982816;28;20004;-87
2024/01/30 05:42:39;;;;;;;;;;;9.00;99.90;;;;;;4980825;28;19948;-86
2024/01/30 05:45:05;;;;;;;;;;;9.00;99.90;;;;;;4979748;28;20349;-87
2024/01/30 05:47:30;;;;;;;;;;;9.00;99.90;;;;;;4982839;28;19942;-87
2024/01/30 05:49:56;;;;;;;;;;;9.00;99.90;;;;;;4985790;28;19949;-86
2024/01/30 05:52:21;;;;;;;;;;;9.00;99.90;;;;;;4988165;28;20053;-86
2024/01/30 05:54:47;;;;;;;;;;;9.00;99.90;;;;;;4984723;28;20382;-88
2024/01/30 05:57:12;;;;;;;;;;;9.00;99.90;;;;;;4967028;28;20345;-88
2024/01/30 05:59:40;;;;;;;;;;;8.90;99.90;;;;;;4975371;28;19961;-87
2024/01/30 06:02:06;;;;;;;;;;;8.90;99.90;;;;;;4972542;28;20051;-88
2024/01/30 06:04:31;;;;;;;;;;;8.90;99.90;;;;;;4980969;28;20014;-88
2024/01/30 06:06:57;;;;;;;;;;;8.90;99.90;;;;;;4977151;28;20496;-89
2024/01/30 06:09:22;;;;;;;;;;;8.80;99.90;;;;;;4975271;28;19949;-89
2024/01/30 06:11:48;;;;;;;;;;;8.70;99.90;;;;;;4974636;28;20108;-90
2024/01/30 06:14:16;;;;;;;;;;;8.60;99.90;;;;;;4973946;28;20435;-89
2024/01/30 06:16:42;;;;;;;;;;;8.60;99.90;;;;;;4968421;28;20053;-89
2024/01/30 06:19:07;;;;;;;;;;;8.50;99.90;;;;;;4985808;28;19977;-89
2024/01/30 06:21:36;;;;;;;;;;;8.40;99.90;;;;;;4980319;28;20448;-89
2024/01/30 06:24:02;;;;;;;;;;;8.20;99.90;;;;;;4974103;28;19962;-90
2024/01/30 06:26:28;;;;;;;;;;;8.20;99.90;;;;;;4981217;28;19942;-89
2024/01/30 06:28:53;;;;;;;;;;;8.20;99.90;;;;;;4995412;28;19944;-88
2024/01/30 06:31:19;;;;;;;;;;;8.20;99.90;;;;;;5000197;28;20015;-88
2024/01/30 06:33:46;;;;;;;;;;;8.20;99.90;;;;;;5001036;28;19935;-89
2024/01/30 06:36:12;;;;;;;;;;;8.20;99.90;;;;;;4998901;28;19994;-88
2024/01/30 06:38:40;;;;;;;;;;;8.10;99.90;;;;;;4988822;28;19966;-90
2024/01/30 06:41:06;;;;;;;;;;;8.10;99.90;;;;;;4983870;28;20051;-90
2024/01/30 06:43:53;;;;;;;;;;;8.10;99.90;;;;;;4975278;28;20427;-91
2024/01/30 06:46:20;;;;;;;;;;;8.00;99.90;;;;;;4976748;28;19955;-90
2024/01/30 06:48:47;;;;;;;;;;;8.10;99.90;;;;;;4979576;28;19955;-89
2024/01/30 06:51:18;;;;;;;;;;;8.00;99.90;;;;;;4979332;28;19945;-90
2024/01/30 06:53:52;;;;;;;;;;;8.00;99.90;;;;;;4976702;28;19954;-92
2024/01/30 06:56:21;;;;;;;;;;;8.00;99.90;;;;;;4978349;28;19941;-91
2024/01/30 06:58:58;;;;;;;;;;;8.00;99.90;;;;;;4966830;28;21303;-91
2024/01/30 07:01:30;;;;;;;;;;;7.90;99.90;;;;;;4972318;28;19973;-90
2024/01/30 07:04:03;;;;;;;;;;;7.90;99.90;;;;;;4975358;28;21120;-88
2024/01/30 07:06:37;;;;;;;;;;;8.00;99.90;;;;;;4975188;23;19963;-90
2024/01/30 07:09:24;;;;;;;;;;;7.90;99.90;;;;;;4952806;28;19947;-90
2024/01/30 07:11:58;;;;;;;;;;;7.80;99.90;;;;;;4956522;28;19950;-92
2024/01/30 07:14:30;;;;;;;;;;;7.80;99.90;;;;;;4957495;28;19958;-91
2024/01/30 07:16:59;;;;;;;;;;;7.80;99.90;;;;;;4964076;28;20860;-89
2024/01/30 07:19:24;;;;;;;;;;;7.80;99.90;;;;;;4956610;28;19999;-90
2024/01/30 07:22:28;;;;;;;;;;;7.80;99.90;;;;;;4960892;28;20188;-91
2024/01/30 07:25:00;;;;;;;;;;;7.90;99.90;;;;;;4902302;29;20569;-90
2024/01/30 07:27:32;;;;;;;;;;;7.90;99.90;;;;;;4896966;29;20286;-89
2024/01/30 07:30:13;;;;;;;;;;;7.80;99.90;;;;;;4903228;29;20000;-91
2024/01/30 07:36:13;;;;;;;;;;;7.80;99.90;;;;;;4906191;29;19951;-93
2024/01/30 07:38:40;;;;;;;;;;;7.80;99.90;;;;;;4902530;29;20059;-91
2024/01/30 07:41:09;;;;;;;;;;;7.80;99.90;;;;;;4897138;29;19952;-91
2024/01/30 09:01:05;;;;;;;;;;;8.20;99.90;;;;;;5031645;23;19970;-86
2024/01/30 09:03:31;;;;;;;;;;;8.20;99.90;;;;;;4960220;28;19953;-86
2024/01/30 09:05:56;;;;;;;;;;;8.30;99.90;;;;;;4956482;28;19942;-89
2024/01/30 09:08:23;;;;;;;;;;;8.30;99.90;;;;;;4948293;28;20054;-90
2024/01/30 09:10:52;;;;;;;;;;;8.30;99.90;;;;;;4953327;28;19950;-89
2024/01/30 13:01:59;;;;;;;;;;;8.80;99.90;;;;;;5355669;23;20453;-87
2024/01/30 13:04:25;;;;;;;;;;;8.80;99.90;;;;;;4823769;29;20407;-90
2024/01/30 13:06:57;;;;;;;;;;;8.80;99.90;;;;;;4820294;29;19969;-93
2024/01/30 13:09:32;;;;;;;;;;;8.70;99.90;;;;;;4822704;29;20007;-93
2024/01/30 13:12:01;;;;;;;;;;;8.80;99.90;;;;;;4818759;29;19956;-87
2024/01/30 13:14:50;;;;;;;;;;;8.80;99.90;;;;;;4864271;29;20159;-90
2024/01/30 13:17:36;;;;;;;;;;;8.70;99.90;;;;;;4796453;29;19965;-91
2024/01/30 13:20:08;;;;;;;;;;;8.60;99.90;;;;;;4799670;29;20008;-91
2024/01/30 13:22:40;;;;;;;;;;;8.70;99.90;;;;;;4797572;29;19946;-93
2024/01/30 13:25:05;;;;;;;;;;;8.70;99.90;;;;;;4799885;29;20001;-89
2024/01/30 13:28:01;;;;;;;;;;;8.70;99.90;;;;;;4871695;29;19950;-90
2024/01/30 13:31:06;;;;;;;;;;;8.70;99.90;;;;;;4876970;29;20000;-87
2024/01/30 13:33:37;;;;;;;;;;;8.60;99.90;;;;;;4878707;29;19954;-90
2024/01/30 13:36:12;;;;;;;;;;;8.50;99.90;;;;;;4882233;29;20051;-90
2024/01/30 13:38:40;;;;;;;;;;;8.50;99.90;;;;;;4878881;29;20065;-89
2024/01/30 13:41:14;;;;;;;;;;;8.50;99.90;;;;;;4874599;29;19949;-90
2024/01/30 13:43:53;;;;;;;;;;;8.50;99.90;;;;;;4861924;29;20001;-93
2024/01/30 13:46:55;;;;;;;;;;;8.50;99.90;;;;;;4890768;29;19946;-90
2024/01/30 13:49:58;;;;;;;;;;;8.50;99.90;;;;;;4893553;29;20047;-91
2024/01/30 13:52:43;;;;;;;;;;;8.50;99.90;;;;;;4896554;29;19995;-92
2024/01/30 13:55:12;;;;;;;;;;;8.50;99.90;;;;;;4889946;29;20167;-87
2024/01/30 13:57:38;;;;;;;;;;;8.50;99.90;;;;;;4885448;29;19976;-89
2024/01/30 14:00:34;;;;;;;;;;;8.60;99.90;;;;;;4891447;29;19943;-94
2024/01/30 14:03:05;;;;;;;;;;;8.60;99.90;;;;;;4871193;29;19948;-88
2024/01/30 14:05:32;;;;;;;;;;;8.60;99.90;;;;;;4871012;29;19951;-87
2024/01/30 14:07:58;;;;;;;;;;;8.60;99.90;;;;;;4861773;29;20259;-84
2024/01/30 14:10:28;;;;;;;;;;;8.70;99.90;;;;;;4857329;29;20009;-85
2024/01/30 14:12:56;;;;;;;;;;;8.80;99.90;;;;;;4859554;29;20730;-86
2024/01/30 14:15:27;;;;;;;;;;;8.80;99.90;;;;;;4858712;29;20318;-85
2024/01/30 14:17:53;;;;;;;;;;;8.80;99.90;;;;;;4861420;29;19953;-84
2024/01/30 14:20:18;;;;;;;;;;;8.80;99.90;;;;;;4859434;29;20076;-86
2024/01/30 14:22:44;;;;;;;;;;;8.80;99.90;;;;;;4850656;29;19944;-84
2024/01/30 14:25:15;;;;;;;;;;;8.80;99.90;;;;;;4827510;29;20041;-90
2024/01/30 14:27:41;;;;;;;;;;;8.80;99.90;;;;;;4838568;29;21406;-82
2024/01/30 14:30:11;;;;;;;;;;;8.70;99.90;;;;;;4848206;29;19954;-86
2024/01/30 14:32:47;;;;;;;;;;;8.70;99.90;;;;;;4862021;29;19955;-89
2024/01/30 14:35:13;;;;;;;;;;;8.60;99.90;;;;;;4864705;29;20058;-87
2024/01/30 14:37:50;;;;;;;;;;;8.70;99.90;;;;;;4848906;29;20097;-82
2024/01/30 14:40:15;;;;;;;;;;;8.60;99.90;;;;;;4861819;29;19947;-85
2024/01/30 14:42:41;;;;;;;;;;;8.60;99.90;;;;;;4861856;29;19963;-82
2024/01/30 14:48:37;;;;;;;;;;;8.50;99.90;;;;;;4822182;29;19954;-87
2024/01/30 14:51:11;;;;;;;;;;;8.50;99.90;;;;;;4809851;29;20133;-87
2024/01/30 14:53:43;;;;;;;;;;;8.60;99.90;;;;;;4802655;29;19952;-87
2024/01/30 14:55:19;;;;;;;;;;;8.60;99.90;;;;;;4871301;29;19977;-89
2024/01/30 14:56:47;;;;;;;;;;;8.60;99.90;;;;;;4828794;29;19941;-87
2024/01/30 14:59:51;;;;;;;;;;;;;;;;;;;;;
2024/01/30 15:02:23;;;;;;;;;;;8.40;99.90;;;;;;4833442;29;19959;-87
2024/01/30 15:04:54;;;;;;;;;;;8.40;99.90;;;;;;4876798;29;20516;-87
2024/01/30 15:07:37;;;;;;;;;;;8.40;99.90;;;;;;4883841;29;20003;-87
2024/01/30 15:10:03;;;;;;;;;;;8.40;99.90;;;;;;4901089;29;20382;-87
2024/01/30 15:12:29;;;;;;;;;;;8.40;99.90;;;;;;4917532;29;19946;-90
2024/01/30 15:14:54;;;;;;;;;;;8.40;99.90;;;;;;4922322;28;20009;-87
2024/01/30 15:17:21;;;;;;;;;;;8.30;99.90;;;;;;4903194;29;20297;-87
2024/01/30 15:19:47;;;;;;;;;;;8.30;99.90;;;;;;4887089;29;19949;-86
2024/01/30 15:22:13;;;;;;;;;;;8.30;99.90;;;;;;4901737;29;20317;-86
2024/01/30 15:24:38;;;;;;;;;;;8.30;99.90;;;;;;4896011;29;19960;-85
2024/01/30 15:27:04;;;;;;;;;;;8.40;99.90;;;;;;4905776;29;19953;-87
2024/01/30 15:29:30;;;;;;;;;;;8.40;99.90;;;;;;4904262;29;19951;-85
2024/01/30 15:31:55;;;;;;;;;;;8.40;99.90;;;;;;4904556;29;20615;-83
2024/01/30 15:34:21;;;;;;;;;;;8.50;99.90;;;;;;4910742;29;20017;-85
2024/01/30 15:36:47;;;;;;;;;;;8.50;99.90;;;;;;4907459;29;19958;-86
2024/01/30 15:39:15;;;;;;;;;;;8.50;99.90;;;;;;4903945;29;19978;-84
2024/01/30 15:41:40;;;;;;;;;;;8.40;99.90;;;;;;4910447;29;20061;-84
2024/01/30 15:44:06;;;;;;;;;;;8.40;99.90;;;;;;4911944;29;19956;-86
2024/01/30 15:46:32;;;;;;;;;;;8.30;99.90;;;;;;4897529;29;19981;-87
2024/01/30 15:48:57;;;;;;;;;;;8.30;99.90;;;;;;4902871;29;20035;-85
2024/01/30 15:51:25;;;;;;;;;;;8.30;99.90;;;;;;4909999;29;19950;-85
2024/01/30 15:53:50;;;;;;;;;;;8.20;99.90;;;;;;4906456;29;20455;-85
2024/01/30 15:56:16;;;;;;;;;;;8.20;99.90;;;;;;4906038;29;19969;-84
2024/01/30 15:58:42;;;;;;;;;;;8.30;99.90;;;;;;4910111;29;20075;-84
2024/01/30 16:01:07;;;;;;;;;;;8.20;99.90;;;;;;4905698;29;19959;-86
2024/01/30 16:03:33;;;;;;;;;;;8.20;99.90;;;;;;4908595;29;20593;-87
2024/01/30 16:05:58;;;;;;;;;;;8.20;99.90;;;;;;4913396;29;19981;-86
2024/01/30 16:08:24;;;;;;;;;;;8.20;99.90;;;;;;4913182;29;20089;-88
2024/01/30 16:10:49;;;;;;;;;;;8.20;99.90;;;;;;4912337;29;19938;-86
2024/01/30 16:13:15;;;;;;;;;;;8.20;99.90;;;;;;4912861;29;19947;-87
2024/01/30 16:15:42;;;;;;;;;;;8.30;99.90;;;;;;4915774;29;19958;-88
2024/01/30 16:18:08;;;;;;;;;;;8.30;99.90;;;;;;4906728;29;20425;-84
2024/01/30 16:20:34;;;;;;;;;;;8.30;99.90;;;;;;4907670;29;20045;-83
2024/01/30 16:22:59;;;;;;;;;;;8.30;99.90;;;;;;4906278;29;19962;-82
2024/01/30 16:25:25;;;;;;;;;;;8.30;99.90;;;;;;4902076;29;21036;-82
2024/01/30 16:27:50;;;;;;;;;;;8.30;99.90;;;;;;4905040;29;19933;-84
2024/01/30 16:30:17;;;;;;;;;;;8.20;99.90;;;;;;4913836;29;20003;-84
2024/01/30 16:32:43;;;;;;;;;;;8.30;99.90;;;;;;4912724;29;20300;-83
2024/01/30 16:35:09;;;;;;;;;;;8.20;99.90;;;;;;4909838;29;19938;-84
2024/01/30 16:37:34;;;;;;;;;;;8.30;99.90;;;;;;4914228;29;19962;-87
2024/01/30 16:40:00;;;;;;;;;;;8.30;99.90;;;;;;4899675;29;19961;-83
2024/01/30 16:42:25;;;;;;;;;;;8.30;99.90;;;;;;4900411;29;19963;-83
2024/01/30 16:44:51;;;;;;;;;;;8.40;99.90;;;;;;4905640;29;19947;-83
2024/01/30 16:47:17;;;;;;;;;;;8.30;99.90;;;;;;4908884;29;20340;-83
2024/01/30 16:49:42;;;;;;;;;;;8.20;99.90;;;;;;4904027;29;19988;-82
2024/01/30 16:52:09;;;;;;;;;;;8.30;99.90;;;;;;4911158;29;19957;-81
2024/01/30 16:54:34;;;;;;;;;;;8.30;99.90;;;;;;4931537;29;19996;-84
2024/01/30 16:57:00;;;;;;;;;;;8.20;99.90;;;;;;4926181;29;20116;-83
2024/01/30 16:59:25;;;;;;;;;;;8.30;99.90;;;;;;4923655;29;20431;-85
2024/01/30 17:01:51;;;;;;;;;;;8.30;99.90;;;;;;4929699;28;19962;-84
2024/01/30 17:04:20;;;;;;;;;;;8.30;99.90;;;;;;4908899;29;19933;-84
2024/01/30 17:06:46;;;;;;;;;;;8.20;99.90;;;;;;4919243;29;19950;-82
2024/01/30 17:09:11;;;;;;;;;;;8.20;99.90;;;;;;4914836;29;19948;-84
2024/01/30 17:11:37;;;;;;;;;;;8.10;99.90;;;;;;4911924;29;20487;-83
2024/01/30 17:14:03;;;;;;;;;;;8.20;99.90;;;;;;4909472;29;19940;-83
2024/01/30 17:16:28;;;;;;;;;;;8.20;99.90;;;;;;4910544;29;20453;-83
2024/01/30 17:18:54;;;;;;;;;;;8.30;99.90;;;;;;4917101;29;19985;-86
2024/01/30 17:21:20;;;;;;;;;;;8.30;99.90;;;;;;4909426;29;19950;-81
2024/01/30 17:23:45;;;;;;;;;;;8.30;99.90;;;;;;4910249;29;20119;-82
2024/01/30 17:26:11;;;;;;;;;;;8.40;99.90;;;;;;4911158;29;20429;-83
2024/01/30 17:28:36;;;;;;;;;;;8.40;99.90;;;;;;4910157;29;19994;-83
2024/01/30 17:31:02;;;;;;;;;;;8.40;99.90;;;;;;4908719;29;19946;-83
2024/01/30 17:33:28;;;;;;;;;;;8.50;99.90;;;;;;4912534;29;20039;-84
2024/01/30 17:35:54;;;;;;;;;;;8.50;99.90;;;;;;4911880;29;20172;-83
2024/01/30 17:38:19;;;;;;;;;;;8.40;99.90;;;;;;4911658;29;20708;-84
2024/01/30 17:40:45;;;;;;;;;;;8.40;99.90;;;;;;4908583;29;20344;-83
2024/01/30 17:43:10;;;;;;;;;;;8.40;99.90;;;;;;4913396;29;20016;-81
2024/01/30 17:45:38;;;;;;;;;;;8.30;99.90;;;;;;4915734;29;20386;-83
2024/01/30 17:48:04;;;;;;;;;;;8.40;99.90;;;;;;4912895;29;19941;-84
2024/01/30 17:50:30;;;;;;;;;;;8.40;99.90;;;;;;4908073;29;19961;-83
2024/01/30 17:52:57;;;;;;;;;;;8.30;99.90;;;;;;4909185;29;19949;-83
2024/01/30 17:55:23;;;;;;;;;;;8.30;99.90;;;;;;4907508;29;19949;-83
2024/01/30 17:57:48;;;;;;;;;;;8.30;99.90;;;;;;4910228;29;20340;-83
2024/01/30 18:00:14;;;;;;;;;;;8.40;99.90;;;;;;4922065;29;20017;-83
2024/01/30 18:02:40;;;;;;;;;;;8.40;99.90;;;;;;4911959;29;19986;-83
2024/01/30 18:05:06;;;;;;;;;;;8.40;99.90;;;;;;4919131;29;20343;-83
2024/01/30 18:07:31;;;;;;;;;;;8.30;99.90;;;;;;4916459;29;19959;-84
2024/01/30 18:09:57;;;;;;;;;;;8.40;99.90;;;;;;4916356;29;20438;-82
2024/01/30 18:12:22;;;;;;;;;;;8.30;99.90;;;;;;4910167;29;20272;-81
2024/01/30 18:14:48;;;;;;;;;;;8.20;99.90;;;;;;4908307;29;20387;-83
2024/01/30 18:17:13;;;;;;;;;;;8.20;99.90;;;;;;4903711;29;19993;-83
2024/01/30 18:19:39;;;;;;;;;;;8.00;99.90;;;;;;4909364;29;20336;-83
2024/01/30 18:22:04;;;;;;;;;;;8.00;99.90;;;;;;4913681;29;19952;-83
2024/01/30 18:24:30;;;;;;;;;;;8.00;99.90;;;;;;4914178;29;19958;-83
2024/01/30 18:26:56;;;;;;;;;;;8.00;99.90;;;;;;4910598;29;19962;-83
2024/01/30 18:29:21;;;;;;;;;;;8.00;99.90;;;;;;4913977;29;20007;-82
2024/01/30 18:31:47;;;;;;;;;;;8.10;99.90;;;;;;4906748;29;20035;-82
2024/01/30 18:34:13;;;;;;;;;;;8.10;99.90;;;;;;4915130;29;20005;-84
2024/01/30 18:36:41;;;;;;;;;;;8.20;99.90;;;;;;4916576;29;19971;-82
2024/01/30 18:39:07;;;;;;;;;;;8.30;99.90;;;;;;4915197;29;19943;-82
2024/01/30 18:41:32;;;;;;;;;;;8.30;99.90;;;;;;4907431;29;19955;-83
2024/01/30 18:43:58;;;;;;;;;;;8.30;99.90;;;;;;4910200;29;19988;-82
2024/01/30 18:46:24;;;;;;;;;;;8.40;99.90;;;;;;4915307;29;20445;-84
2024/01/30 18:48:49;;;;;;;;;;;8.40;99.90;;;;;;4909043;29;20138;-83
2024/01/30 18:51:16;;;;;;;;;;;8.40;99.90;;;;;;4910001;29;19969;-84
2024/01/30 18:53:43;;;;;;;;;;;8.50;99.90;;;;;;4912529;29;19960;-84
2024/01/30 18:56:09;;;;;;;;;;;8.50;99.90;;;;;;4913340;29;20002;-82
2024/01/30 18:58:35;;;;;;;;;;;8.50;99.90;;;;;;4913933;29;19954;-82
2024/01/30 19:01:00;;;;;;;;;;;8.50;99.90;;;;;;4916626;29;20056;-84
2024/01/30 19:03:26;;;;;;;;;;;8.60;99.90;;;;;;4913221;29;20487;-82
2024/01/30 19:05:51;;;;;;;;;;;8.60;99.90;;;;;;4908593;29;19950;-82
2024/01/30 19:08:17;;;;;;;;;;;8.60;99.90;;;;;;4915562;29;19942;-83
2024/01/30 19:10:45;;;;;;;;;;;8.60;99.90;;;;;;4913212;29;20171;-84
2024/01/30 19:13:12;;;;;;;;;;;8.50;99.90;;;;;;4919337;29;19955;-83
2024/01/30 19:15:38;;;;;;;;;;;8.50;99.90;;;;;;4926873;29;20659;-83
2024/01/30 19:18:03;;;;;;;;;;;8.50;99.90;;;;;;4933444;29;19950;-83
2024/01/30 19:20:29;;;;;;;;;;;8.60;99.90;;;;;;4940229;29;20014;-83
2024/01/30 19:22:54;;;;;;;;;;;8.60;99.90;;;;;;4931156;29;19958;-83
2024/01/30 19:25:20;;;;;;;;;;;8.60;99.90;;;;;;4926178;29;19942;-83
2024/01/30 19:27:45;;;;;;;;;;;8.50;99.90;;;;;;4920792;29;19951;-83
2024/01/30 19:30:11;;;;;;;;;;;8.60;99.90;;;;;;4921027;29;19950;-83
2024/01/30 19:32:37;;;;;;;;;;;8.50;99.90;;;;;;4912426;29;20260;-84
2024/01/30 19:35:03;;;;;;;;;;;8.50;99.90;;;;;;4919786;29;19949;-84
2024/01/30 19:37:31;;;;;;;;;;;8.50;99.90;;;;;;4918614;29;20413;-83
2024/01/30 19:39:56;;;;;;;;;;;8.50;99.90;;;;;;4914350;29;19952;-83
2024/01/30 19:42:22;;;;;;;;;;;8.50;99.90;;;;;;4907436;29;20107;-84
2024/01/30 19:44:47;;;;;;;;;;;8.50;99.90;;;;;;4912611;29;20100;-84
2024/01/30 19:47:13;;;;;;;;;;;8.40;99.90;;;;;;4917482;29;19959;-84
2024/01/30 19:49:39;;;;;;;;;;;8.40;99.90;;;;;;4921738;29;20466;-84
2024/01/30 19:52:06;;;;;;;;;;;8.30;99.90;;;;;;4917155;29;19951;-84
2024/01/30 19:54:32;;;;;;;;;;;8.30;99.90;;;;;;4918452;29;19953;-83
2024/01/30 19:56:59;;;;;;;;;;;8.30;99.90;;;;;;4917343;29;19954;-83
2024/01/30 19:59:26;;;;;;;;;;;8.30;99.90;;;;;;4918034;29;19957;-83
2024/01/30 20:01:52;;;;;;;;;;;8.30;99.90;;;;;;4921456;29;20246;-83
2024/01/30 20:04:17;;;;;;;;;;;8.30;99.90;;;;;;4918168;29;20482;-83
2024/01/30 20:06:43;;;;;;;;;;;8.30;99.90;;;;;;4919609;29;19996;-83
2024/01/30 20:09:09;;;;;;;;;;;8.30;99.90;;;;;;4916520;29;20002;-84
2024/01/30 20:11:36;;;;;;;;;;;8.20;99.90;;;;;;4914370;29;19952;-84
2024/01/30 20:14:01;;;;;;;;;;;8.20;99.90;;;;;;4912765;29;19957;-83
2024/01/30 20:16:42;;;;;;;;;;;8.20;99.90;;;;;;4909518;29;19950;-83
2024/01/30 20:19:09;;;;;;;;;;;8.30;99.90;;;;;;4915250;29;19958;-83
2024/01/30 20:21:35;;;;;;;;;;;8.30;99.90;;;;;;4916247;29;19991;-83
2024/01/30 20:24:01;;;;;;;;;;;8.40;99.90;;;;;;4913983;29;19993;-83
2024/01/30 20:26:27;;;;;;;;;;;8.40;99.90;;;;;;4916547;29;19942;-83
2024/01/30 20:28:54;;;;;;;;;;;8.40;99.90;;;;;;4918677;29;19955;-83
2024/01/30 20:31:21;;;;;;;;;;;8.40;99.90;;;;;;4919918;29;20007;-81
2024/01/30 20:33:47;;;;;;;;;;;8.40;99.90;;;;;;4918696;29;19950;-81
2024/01/30 20:36:13;;;;;;;;;;;8.40;99.90;;;;;;4914277;29;19988;-83
2024/01/30 20:38:38;;;;;;;;;;;8.40;99.90;;;;;;4918167;29;20023;-82
2024/01/30 20:41:08;;;;;;;;;;;8.30;99.90;;;;;;4915945;29;19970;-82
2024/01/30 20:43:34;;;;;;;;;;;8.20;99.90;;;;;;4918358;29;19963;-82
2024/01/30 20:45:59;;;;;;;;;;;8.20;99.90;;;;;;4908772;29;19942;-84
2024/01/30 20:48:26;;;;;;;;;;;8.20;99.90;;;;;;4915259;29;19954;-83